Time;durP1;ratioP1;P1;durP2;ratioP2;P2;SDS_P1;SDS_P2;PMS_P1;PMS_P2;Temp;Humidity;BMP_temperature;BMP_pressure;BME280_temperature;BME280_humidity;BME280_pressure;Samples;Min_cycle;Max_cycle;Signal;HPM_P1;HPM_P2
2023/01/12 00:01:26;;;;;;;14.52;8.50;;;5.20;68.10;;;;;;6026141;23;115069;-83
2023/01/12 00:03:53;;;;;;;11.40;7.55;;;5.20;68.20;;;;;;6026588;23;116590;-83
2023/01/12 00:06:41;;;;;;;13.65;7.63;;;5.20;68.20;;;;;;6031868;23;114466;-83
2023/01/12 00:09:08;;;;;;;15.18;8.30;;;5.20;68.30;;;;;;6053354;23;114167;-83
2023/01/12 00:11:46;;;;;;;13.70;8.68;;;5.20;68.50;;;;;;6027979;23;114936;-83
2023/01/12 00:14:19;;;;;;;13.63;8.43;;;5.20;68.60;;;;;;6027041;23;116482;-83
2023/01/12 00:16:50;;;;;;;13.57;8.48;;;5.20;68.60;;;;;;6036262;23;114434;-83
2023/01/12 00:19:35;;;;;;;15.90;9.27;;;5.20;68.70;;;;;;6052941;23;114276;-83
2023/01/12 00:22:28;;;;;;;17.38;9.48;;;5.20;68.70;;;;;;6050236;23;118959;-84
2023/01/12 00:24:58;;;;;;;14.38;9.07;;;5.20;68.80;;;;;;6040933;23;114754;-83
2023/01/12 00:27:31;;;;;;;14.23;9.40;;;5.20;69.00;;;;;;6053603;23;114420;-84
2023/01/12 00:30:06;;;;;;;14.20;9.35;;;5.20;69.20;;;;;;6077468;23;114384;-83
2023/01/12 00:33:01;;;;;;;16.15;10.45;;;5.30;69.20;;;;;;6073878;23;117811;-84
2023/01/12 00:35:28;;;;;;;17.63;10.75;;;5.30;69.60;;;;;;6009552;23;114725;-83
2023/01/12 00:37:59;;;;;;;15.02;9.27;;;5.30;69.40;;;;;;6054370;23;115065;-83
2023/01/12 00:40:47;;;;;;;16.33;9.55;;;5.30;69.50;;;;;;6072429;23;116010;-83
2023/01/12 00:46:02;;;;;;;17.88;9.60;;;5.20;69.50;;;;;;6073090;23;114712;-84
2023/01/12 00:48:30;;;;;;;18.00;10.52;;;5.30;69.50;;;;;;6053385;23;114416;-84
2023/01/12 00:51:01;;;;;;;14.63;9.90;;;5.30;69.70;;;;;;6030828;23;114446;-83
2023/01/12 00:53:30;;;;;;;15.82;9.70;;;5.20;69.80;;;;;;6054777;23;116552;-83
2023/01/12 00:56:01;;;;;;;14.10;8.90;;;5.30;69.90;;;;;;6052459;23;114784;-84
2023/01/12 00:58:29;;;;;;;15.52;8.70;;;5.20;70.10;;;;;;6053216;23;114560;-83
2023/01/12 01:01:06;;;;;;;14.15;9.50;;;5.20;70.10;;;;;;6028925;23;114278;-83
2023/01/12 01:03:34;;;;;;;12.60;8.65;;;5.30;70.40;;;;;;6052005;23;114927;-83
2023/01/12 01:06:03;;;;;;;15.15;8.63;;;5.30;70.10;;;;;;6053432;23;115054;-83
2023/01/12 01:08:35;;;;;;;10.70;7.25;;;5.30;70.20;;;;;;6054402;23;114356;-83
2023/01/12 01:11:06;;;;;;;15.35;7.47;;;5.30;70.10;;;;;;6076858;23;114593;-83
2023/01/12 01:13:35;;;;;;;12.10;7.07;;;5.30;70.10;;;;;;6003774;23;116034;-84
2023/01/12 01:16:03;;;;;;;11.00;6.95;;;5.40;70.10;;;;;;6076820;23;115299;-83
2023/01/12 01:18:34;;;;;;;10.52;6.00;;;5.40;70.20;;;;;;6076841;23;114570;-83
2023/01/12 01:21:04;;;;;;;11.43;6.22;;;5.40;70.10;;;;;;6052684;23;114486;-83
2023/01/12 01:23:35;;;;;;;9.60;5.40;;;5.30;70.00;;;;;;6052977;23;115142;-84
2023/01/12 01:26:04;;;;;;;9.52;5.63;;;5.30;70.30;;;;;;6027276;23;114667;-83
2023/01/12 01:28:35;;;;;;;10.02;5.28;;;5.30;70.30;;;;;;6053827;23;114549;-83
2023/01/12 01:31:08;;;;;;;7.35;5.00;;;5.30;70.10;;;;;;6052718;23;114483;-82
2023/01/12 01:33:35;;;;;;;8.23;4.55;;;5.20;70.20;;;;;;6053472;23;115069;-83
2023/01/12 01:36:03;;;;;;;7.82;4.13;;;5.20;70.40;;;;;;6053126;23;114674;-83
2023/01/12 01:38:31;;;;;;;7.20;4.25;;;5.20;70.30;;;;;;6052862;23;114831;-84
2023/01/12 01:40:58;;;;;;;7.60;4.22;;;5.20;70.40;;;;;;6054275;23;114626;-83
2023/01/12 01:43:26;;;;;;;8.05;4.20;;;5.20;70.10;;;;;;6052673;23;115096;-83
2023/01/12 01:46:08;;;;;;;7.30;4.80;;;5.20;70.20;;;;;;6051859;23;114672;-84
2023/01/12 01:48:37;;;;;;;6.15;4.20;;;5.30;70.40;;;;;;6076234;23;114257;-84
2023/01/12 01:51:14;;;;;;;6.88;4.47;;;5.30;70.30;;;;;;6053048;23;114456;-84
2023/01/12 01:53:44;;;;;;;6.15;3.90;;;5.30;70.30;;;;;;6075793;23;117780;-83
2023/01/12 01:56:15;;;;;;;7.07;3.78;;;5.30;70.20;;;;;;6053491;23;114563;-84
2023/01/12 01:59:09;;;;;;;6.25;4.20;;;5.30;70.10;;;;;;6052949;23;114488;-84
2023/01/12 02:01:39;;;;;;;6.65;3.70;;;5.30;70.00;;;;;;6045387;23;114685;-84
2023/01/12 02:04:08;;;;;;;6.28;4.00;;;5.30;70.10;;;;;;6053492;23;115013;-83
2023/01/12 02:06:35;;;;;;;6.65;4.10;;;5.30;69.90;;;;;;6078495;23;118081;-83
2023/01/12 02:09:16;;;;;;;8.23;4.50;;;5.20;69.90;;;;;;6030027;23;114530;-83
2023/01/12 02:17:52;;;;;;;8.50;4.95;;;5.20;70.10;;;;;;6053034;23;114591;-83
2023/01/12 02:20:32;;;;;;;9.30;4.88;;;5.30;69.80;;;;;;6054187;23;114241;-84
2023/01/12 02:23:26;;;;;;;7.82;4.63;;;5.20;70.00;;;;;;6076850;23;114609;-84
2023/01/12 02:26:24;;;;;;;8.32;5.57;;;5.20;69.60;;;;;;6051436;23;115155;-83
2023/01/12 02:29:36;;;;;;;10.10;5.60;;;5.10;69.70;;;;;;6053055;23;114967;-83
2023/01/12 02:32:35;;;;;;;8.85;5.40;;;5.00;70.10;;;;;;6077391;23;114690;-83
2023/01/12 02:35:25;;;;;;;9.30;5.53;;;5.00;70.20;;;;;;6073383;23;114394;-84
2023/01/12 02:37:55;;;;;;;9.95;6.75;;;4.90;70.20;;;;;;6075869;23;115497;-83
2023/01/12 02:40:43;;;;;;;12.43;7.78;;;5.00;70.20;;;;;;6076298;23;114836;-83
2023/01/12 02:43:16;;;;;;;13.40;7.75;;;5.00;70.30;;;;;;5983870;23;114295;-83
2023/01/12 02:46:10;;;;;;;10.40;7.10;;;5.00;70.30;;;;;;6052503;23;114626;-84
2023/01/12 02:48:53;;;;;;;12.05;7.28;;;5.00;70.30;;;;;;6071937;23;115519;-83
2023/01/12 02:51:23;;;;;;;14.38;7.80;;;4.90;70.30;;;;;;6051189;23;114807;-83
2023/01/12 02:53:53;;;;;;;12.32;8.13;;;4.90;70.20;;;;;;6053908;23;114300;-83
2023/01/12 02:56:44;;;;;;;11.43;7.38;;;4.90;70.40;;;;;;6077338;23;114227;-83
2023/01/12 02:59:32;;;;;;;15.57;8.13;;;4.90;70.60;;;;;;6052762;23;115196;-83
2023/01/12 03:02:08;;;;;;;11.18;6.90;;;4.90;70.50;;;;;;6026726;23;116898;-83
2023/01/12 03:04:35;;;;;;;12.27;7.05;;;4.90;70.50;;;;;;6075488;23;114476;-83
2023/01/12 03:07:03;;;;;;;12.57;6.70;;;4.90;70.40;;;;;;6054070;23;114192;-83
2023/01/12 03:09:35;;;;;;;10.95;6.70;;;4.80;70.70;;;;;;6052810;23;115803;-83
2023/01/12 03:12:09;;;;;;;10.95;6.35;;;4.80;70.80;;;;;;6051203;23;115160;-83
2023/01/12 03:14:37;;;;;;;10.48;7.07;;;4.80;70.90;;;;;;6028960;23;114274;-83
2023/01/12 03:17:10;;;;;;;12.50;6.15;;;4.70;70.80;;;;;;6028955;23;114563;-83
2023/01/12 03:19:37;;;;;;;10.85;6.63;;;4.70;70.90;;;;;;6074918;23;115065;-83
2023/01/12 03:22:07;;;;;;;12.15;7.90;;;4.70;71.10;;;;;;6027893;23;114546;-83
2023/01/12 03:24:40;;;;;;;13.30;7.85;;;4.70;71.20;;;;;;6004695;23;114254;-83
2023/01/12 03:27:21;;;;;;;10.48;7.47;;;4.80;71.30;;;;;;6051513;23;114502;-83
2023/01/12 03:30:22;;;;;;;13.32;8.65;;;4.90;71.20;;;;;;6026375;23;115134;-83
2023/01/12 03:32:51;;;;;;;10.90;7.88;;;4.90;71.10;;;;;;6046568;23;115363;-83
2023/01/12 03:35:18;;;;;;;12.10;8.35;;;4.80;71.10;;;;;;6052463;23;114697;-83
2023/01/12 03:38:06;;;;;;;14.80;10.77;;;4.90;71.20;;;;;;6052604;23;114223;-83
2023/01/12 03:40:41;;;;;;;19.48;12.00;;;5.00;71.50;;;;;;6006537;23;115136;-83
2023/01/12 03:43:37;;;;;;;19.58;14.48;;;5.00;71.40;;;;;;6004784;23;115119;-83
2023/01/12 03:46:30;;;;;;;17.35;12.80;;;5.00;71.40;;;;;;6076926;23;114342;-83
2023/01/12 03:49:16;;;;;;;19.60;12.68;;;5.10;71.50;;;;;;6053389;23;114253;-83
2023/01/12 03:51:44;;;;;;;21.48;11.98;;;5.20;71.40;;;;;;6030070;23;115028;-83
2023/01/12 03:54:12;;;;;;;17.35;11.20;;;5.20;71.20;;;;;;6051305;23;114636;-84
2023/01/12 03:56:39;;;;;;;14.98;9.20;;;5.20;71.20;;;;;;6028848;23;114226;-83
2023/01/12 03:59:08;;;;;;;17.27;9.65;;;5.20;71.20;;;;;;6031586;23;114658;-83
2023/01/12 04:01:35;;;;;;;14.57;9.32;;;5.20;71.20;;;;;;6076750;23;116248;-83
2023/01/12 04:04:03;;;;;;;12.13;8.52;;;5.20;71.00;;;;;;6076893;23;115940;-83
2023/01/12 04:06:30;;;;;;;12.10;7.70;;;5.20;70.90;;;;;;6078066;23;114346;-84
2023/01/12 04:08:57;;;;;;;12.40;8.90;;;5.20;70.80;;;;;;6053539;23;114330;-84
2023/01/12 04:14:10;;;;;;;12.45;6.88;;;5.10;71.20;;;;;;6054598;23;114627;-83
2023/01/12 04:16:38;;;;;;;11.63;7.90;;;5.10;71.00;;;;;;6077837;23;114289;-83
2023/01/12 04:19:05;;;;;;;9.75;7.05;;;4.90;71.30;;;;;;6053795;23;114578;-83
2023/01/12 04:24:19;;;;;;;11.55;7.68;;;5.00;71.50;;;;;;6078799;23;117619;-83
2023/01/12 04:26:46;;;;;;;16.73;9.38;;;5.10;71.50;;;;;;6054293;23;114352;-83
2023/01/12 04:29:14;;;;;;;13.95;10.15;;;5.10;71.50;;;;;;6053797;23;114566;-83
2023/01/12 04:31:41;;;;;;;11.20;6.60;;;5.10;71.30;;;;;;6054088;23;114938;-83
2023/01/12 04:34:08;;;;;;;11.32;6.40;;;5.10;70.90;;;;;;6052617;23;114707;-83
2023/01/12 04:36:35;;;;;;;12.63;6.78;;;5.00;71.10;;;;;;6077291;23;114469;-83
2023/01/12 04:39:03;;;;;;;11.05;6.35;;;5.00;71.30;;;;;;6030070;23;114389;-83
2023/01/12 04:41:30;;;;;;;11.57;7.50;;;5.00;71.20;;;;;;6076525;23;115220;-83
2023/01/12 04:43:58;;;;;;;13.93;8.70;;;5.00;71.20;;;;;;6053706;23;114812;-83
2023/01/12 04:46:25;;;;;;;11.05;7.30;;;5.00;71.10;;;;;;6077003;23;114275;-83
2023/01/12 04:48:52;;;;;;;12.65;8.13;;;4.90;71.00;;;;;;6077656;23;114434;-83
2023/01/12 04:51:19;;;;;;;14.40;8.13;;;4.90;71.30;;;;;;6053486;23;116654;-83
2023/01/12 04:53:47;;;;;;;16.10;10.10;;;5.00;71.40;;;;;;6051671;23;114771;-83
2023/01/12 04:56:14;;;;;;;16.88;11.10;;;5.00;71.30;;;;;;6053012;23;114478;-83
2023/01/12 04:58:41;;;;;;;13.55;9.50;;;4.90;71.30;;;;;;6054450;23;114216;-83
2023/01/12 05:01:09;;;;;;;15.93;11.27;;;5.00;71.30;;;;;;6076427;23;115064;-83
2023/01/12 05:03:37;;;;;;;18.70;11.07;;;5.00;71.30;;;;;;6052343;23;115131;-83
2023/01/12 05:06:05;;;;;;;16.77;10.68;;;5.10;71.10;;;;;;5982029;23;114348;-83
2023/01/12 05:11:20;;;;;;;14.32;8.07;;;5.10;70.80;;;;;;6051383;23;115447;-83
2023/01/12 05:13:47;;;;;;;16.27;9.65;;;5.00;70.70;;;;;;6028157;23;115049;-83
2023/01/12 05:16:16;;;;;;;12.10;8.65;;;4.90;71.00;;;;;;6077612;23;114447;-83
2023/01/12 05:18:44;;;;;;;13.40;8.13;;;5.00;71.10;;;;;;6053429;23;114397;-83
2023/01/12 05:21:16;;;;;;;11.82;7.60;;;5.00;70.80;;;;;;6051967;23;115461;-84
2023/01/12 05:23:44;;;;;;;14.00;10.07;;;4.90;71.00;;;;;;6051514;23;114778;-83
2023/01/12 05:26:12;;;;;;;16.85;10.23;;;4.90;71.20;;;;;;6054411;23;114540;-84
2023/01/12 05:28:39;;;;;;;19.15;12.60;;;5.00;71.20;;;;;;6029034;23;114586;-83
2023/01/12 05:31:11;;;;;;;18.73;13.05;;;5.00;71.10;;;;;;6051603;23;115173;-84
2023/01/12 05:33:40;;;;;;;22.77;15.27;;;5.00;71.20;;;;;;6075140;23;114726;-84
2023/01/12 05:36:12;;;;;;;22.40;14.30;;;5.10;71.00;;;;;;6027373;23;114472;-83
2023/01/12 05:38:40;;;;;;;19.35;13.27;;;5.00;71.00;;;;;;6052743;23;114401;-84
2023/01/12 05:41:09;;;;;;;24.60;14.30;;;5.00;71.10;;;;;;6052966;23;115200;-84
2023/01/12 05:43:51;;;;;;;23.10;15.15;;;5.10;71.20;;;;;;6052643;23;114624;-83
2023/01/12 05:46:27;;;;;;;27.55;16.02;;;5.10;70.90;;;;;;6053811;23;114456;-84
2023/01/12 05:48:55;;;;;;;24.67;15.63;;;5.10;71.00;;;;;;6054224;23;114284;-82
2023/01/12 05:51:24;;;;;;;25.92;15.65;;;5.10;71.20;;;;;;6028791;23;115147;-83
2023/01/12 05:53:51;;;;;;;27.23;15.07;;;5.10;71.10;;;;;;5981243;23;114707;-83
2023/01/12 05:56:26;;;;;;;23.52;15.05;;;5.20;71.00;;;;;;6053298;23;114516;-83
2023/01/12 05:58:57;;;;;;;24.27;12.73;;;5.20;71.00;;;;;;6077460;23;114603;-83
2023/01/12 06:01:24;;;;;;;21.67;13.50;;;5.20;70.90;;;;;;6052777;23;114993;-84
2023/01/12 06:03:56;;;;;;;24.98;15.95;;;5.10;70.80;;;;;;6003891;23;115205;-85
2023/01/12 06:06:25;;;;;;;18.17;12.80;;;5.00;71.10;;;;;;6079603;23;114474;-84
2023/01/12 06:08:52;;;;;;;19.88;13.48;;;5.00;71.30;;;;;;6031220;23;114198;-85
2023/01/12 06:14:11;;;;;;;19.25;13.13;;;4.90;71.40;;;;;;6000895;23;114555;-84
2023/01/12 06:16:41;;;;;;;20.15;13.15;;;5.00;71.50;;;;;;5998743;23;114535;-82
2023/01/12 06:19:09;;;;;;;19.73;12.30;;;5.10;71.50;;;;;;5998977;23;114576;-84
2023/01/12 06:21:39;;;;;;;21.55;13.35;;;5.10;71.40;;;;;;5973621;23;115953;-84
2023/01/12 06:24:07;;;;;;;20.30;12.55;;;5.00;71.20;;;;;;6020919;23;115855;-84
2023/01/12 06:26:34;;;;;;;23.10;13.57;;;5.00;71.30;;;;;;6021035;23;114649;-85
2023/01/12 06:29:04;;;;;;;20.00;13.70;;;5.00;71.40;;;;;;5998116;23;114368;-84
2023/01/12 06:31:32;;;;;;;23.38;14.65;;;5.00;71.40;;;;;;6021084;23;115030;-83
2023/01/12 06:33:59;;;;;;;25.65;14.55;;;5.00;71.30;;;;;;6021212;23;114935;-84
2023/01/12 06:36:26;;;;;;;27.10;15.98;;;5.10;71.40;;;;;;6021775;23;114322;-83
2023/01/12 06:38:53;;;;;;;22.08;15.90;;;5.10;71.50;;;;;;6022390;23;114753;-83
2023/01/12 06:44:08;;;;;;;21.50;14.13;;;5.10;71.30;;;;;;6052250;23;114594;-83
2023/01/12 06:46:35;;;;;;;25.08;13.75;;;5.00;71.30;;;;;;6050770;23;114817;-84
2023/01/12 06:49:05;;;;;;;20.63;12.07;;;5.00;71.30;;;;;;6052656;23;114227;-84
2023/01/12 06:51:33;;;;;;;18.85;12.63;;;5.00;71.20;;;;;;6051548;23;115018;-83
2023/01/12 06:54:00;;;;;;;20.85;12.95;;;5.00;71.10;;;;;;6074713;23;117023;-83
2023/01/12 06:56:27;;;;;;;22.45;14.07;;;5.00;71.20;;;;;;6075326;23;115158;-83
2023/01/12 06:58:54;;;;;;;25.33;14.90;;;5.00;71.20;;;;;;6003993;23;114711;-83
2023/01/12 07:01:25;;;;;;;24.70;15.25;;;5.00;71.20;;;;;;6050502;23;115009;-83
2023/01/12 07:03:53;;;;;;;22.98;13.23;;;5.00;71.20;;;;;;6050424;23;115785;-83
2023/01/12 07:06:20;;;;;;;19.88;13.23;;;5.00;71.10;;;;;;6051734;23;114357;-83
2023/01/12 07:08:47;;;;;;;24.77;14.63;;;4.90;71.00;;;;;;6052365;23;114735;-84
2023/01/12 07:11:15;;;;;;;22.73;13.98;;;4.90;71.10;;;;;;6051009;23;115489;-84
2023/01/12 07:13:45;;;;;;;24.75;13.73;;;4.90;71.10;;;;;;6052229;23;114885;-84
2023/01/12 07:16:12;;;;;;;23.25;12.82;;;4.90;71.10;;;;;;6027160;23;114358;-83
2023/01/12 07:18:40;;;;;;;17.10;11.20;;;4.90;71.10;;;;;;6053678;23;114304;-85
2023/01/12 07:21:08;;;;;;;15.30;10.13;;;4.90;71.00;;;;;;6027227;23;115731;-85
2023/01/12 07:23:41;;;;;;;16.95;10.30;;;4.90;71.00;;;;;;6049617;23;115985;-84
2023/01/12 07:26:11;;;;;;;19.55;9.73;;;4.90;71.10;;;;;;6052111;23;114476;-85
2023/01/12 07:28:38;;;;;;;19.00;10.75;;;4.90;71.10;;;;;;6052229;23;114502;-85
2023/01/12 07:31:06;;;;;;;23.08;11.30;;;4.90;71.10;;;;;;6050342;23;115778;-84
2023/01/12 07:33:35;;;;;;;19.65;11.63;;;5.00;71.00;;;;;;6051092;23;114885;-85
2023/01/12 07:36:03;;;;;;;18.13;11.18;;;5.00;71.00;;;;;;6059499;23;114636;-84
2023/01/12 07:38:32;;;;;;;19.17;10.38;;;4.90;71.10;;;;;;6012622;23;114164;-84
2023/01/12 07:42:22;;;;;;;19.98;11.65;;;4.90;71.10;;;;;;6005510;23;117934;-83
2023/01/12 07:44:09;;;;;;;17.23;11.15;;;4.90;71.30;;;;;;6057030;23;114599;-83
2023/01/12 07:46:36;;;;;;;19.85;10.35;;;4.90;71.30;;;;;;6054555;23;114721;-84
2023/01/12 07:49:03;;;;;;;18.73;11.20;;;4.90;71.30;;;;;;6060003;23;114233;-83
2023/01/12 07:51:31;;;;;;;16.13;10.50;;;5.00;71.30;;;;;;6027706;23;115177;-83
2023/01/12 07:53:58;;;;;;;16.50;10.48;;;5.10;71.20;;;;;;6050302;23;114551;-83
2023/01/12 07:56:25;;;;;;;17.52;11.38;;;5.10;71.40;;;;;;6078023;23;114250;-84
2023/01/12 07:58:53;;;;;;;20.08;11.50;;;5.10;71.30;;;;;;6059025;23;114131;-84
2023/01/12 08:01:23;;;;;;;16.30;10.80;;;5.20;71.10;;;;;;6030993;23;115362;-84
2023/01/12 08:03:50;;;;;;;17.90;11.10;;;5.20;71.00;;;;;;6026735;23;114628;-84
2023/01/12 08:06:17;;;;;;;19.00;11.57;;;5.30;70.80;;;;;;6052548;23;114343;-85
2023/01/12 08:08:45;;;;;;;21.25;12.85;;;5.40;70.80;;;;;;6051337;23;114764;-85
2023/01/12 08:11:12;;;;;;;19.67;12.27;;;5.50;70.60;;;;;;6026677;23;116893;-82
2023/01/12 08:13:39;;;;;;;19.92;12.90;;;5.60;70.50;;;;;;6050296;23;114664;-83
2023/01/12 08:16:19;;;;;;;22.42;13.45;;;5.60;70.50;;;;;;6053450;23;114312;-83
2023/01/12 08:19:02;;;;;;;25.42;16.40;;;5.70;70.30;;;;;;6028401;23;114373;-84
2023/01/12 08:21:33;;;;;;;29.98;16.75;;;5.70;70.20;;;;;;6003427;23;115163;-84
2023/01/12 08:24:00;;;;;;;35.33;19.25;;;5.70;70.10;;;;;;6052051;23;114650;-83
2023/01/12 08:26:32;;;;;;;31.50;18.30;;;5.60;69.80;;;;;;6051932;23;114383;-83
2023/01/12 08:29:39;;;;;;;33.30;18.02;;;5.60;69.80;;;;;;5981023;23;114543;-83
2023/01/12 08:32:06;;;;;;;27.35;15.40;;;5.70;69.60;;;;;;6008031;23;115384;-83
2023/01/12 08:34:34;;;;;;;27.63;14.98;;;5.60;69.70;;;;;;6027015;23;115226;-84
2023/01/12 08:37:05;;;;;;;18.45;12.27;;;5.70;69.70;;;;;;6003329;23;114319;-84
2023/01/12 08:39:34;;;;;;;17.00;11.98;;;5.80;69.20;;;;;;6051607;23;114393;-84
2023/01/12 08:42:01;;;;;;;17.38;11.18;;;5.90;69.30;;;;;;6003240;23;115143;-84
2023/01/12 08:44:32;;;;;;;16.23;10.15;;;6.00;69.10;;;;;;6052495;23;114763;-84
2023/01/12 08:47:00;;;;;;;15.13;9.90;;;6.10;68.50;;;;;;6054657;23;114804;-85
2023/01/12 08:49:28;;;;;;;14.98;10.68;;;6.20;68.60;;;;;;6053689;23;114506;-84
2023/01/12 08:52:01;;;;;;;14.45;9.90;;;6.20;68.40;;;;;;6006159;23;118155;-84
2023/01/12 08:54:30;;;;;;;15.98;10.90;;;6.20;68.50;;;;;;6051689;23;114709;-85
2023/01/12 08:56:58;;;;;;;16.83;11.20;;;6.50;68.50;;;;;;6053551;23;114304;-84
2023/01/12 08:59:29;;;;;;;15.25;11.02;;;6.60;68.20;;;;;;6005843;23;114301;-84
2023/01/12 09:01:57;;;;;;;15.60;11.32;;;6.70;67.90;;;;;;6052564;23;115543;-82
2023/01/12 09:04:27;;;;;;;19.77;12.50;;;6.90;67.50;;;;;;6051648;23;114701;-85
2023/01/12 09:06:54;;;;;;;16.27;11.20;;;7.00;67.20;;;;;;6053131;23;114908;-85
2023/01/12 09:09:23;;;;;;;16.48;10.80;;;7.00;67.10;;;;;;6029309;23;114309;-84
2023/01/12 09:11:50;;;;;;;14.35;10.30;;;7.00;66.90;;;;;;6027971;23;115218;-84
2023/01/12 09:14:17;;;;;;;14.00;9.73;;;7.10;66.70;;;;;;6054198;23;115068;-85
2023/01/12 09:16:44;;;;;;;15.38;10.07;;;7.10;66.60;;;;;;6077419;23;114836;-84
2023/01/12 09:19:12;;;;;;;14.95;10.10;;;7.20;66.40;;;;;;6028907;23;114383;-85
2023/01/12 09:21:39;;;;;;;14.68;10.30;;;7.20;66.10;;;;;;6027843;23;115016;-85
2023/01/12 09:24:07;;;;;;;13.90;10.20;;;7.10;66.00;;;;;;6051908;23;115076;-85
2023/01/12 09:26:42;;;;;;;14.23;9.52;;;7.20;66.00;;;;;;6029566;23;114539;-84
2023/01/12 09:29:11;;;;;;;12.40;9.15;;;7.10;65.40;;;;;;6052841;23;114489;-84
2023/01/12 09:31:41;;;;;;;17.30;8.90;;;7.20;65.90;;;;;;6054172;23;115216;-83
2023/01/12 09:34:09;;;;;;;15.57;9.15;;;7.20;66.10;;;;;;6052364;23;114830;-83
2023/01/12 09:36:38;;;;;;;18.95;9.52;;;7.20;66.00;;;;;;6053681;23;114417;-83
2023/01/12 09:39:06;;;;;;;12.98;8.95;;;7.30;65.90;;;;;;6055355;23;114440;-84
2023/01/12 09:47:52;;;;;;;14.50;8.65;;;7.60;65.30;;;;;;6053105;23;114379;-85
2023/01/12 09:50:27;;;;;;;16.38;8.15;;;7.60;65.10;;;;;;6062588;23;114400;-85
2023/01/12 09:53:25;;;;;;;10.07;4.85;;;7.70;64.90;;;;;;6031424;23;115189;-85
2023/01/12 09:56:35;;;;;;;9.50;5.60;;;7.70;64.10;;;;;;6029769;23;114799;-85
2023/01/12 09:59:29;;;;;;;12.55;7.55;;;7.70;64.10;;;;;;6053789;23;114211;-84
2023/01/12 10:01:56;;;;;;;10.37;4.93;;;7.80;64.20;;;;;;6073537;23;114526;-83
2023/01/12 10:04:25;;;;;;;7.78;3.40;;;7.80;64.20;;;;;;6051940;23;115081;-84
2023/01/12 10:06:52;;;;;;;5.88;2.53;;;7.90;63.50;;;;;;6052173;23;115234;-84
2023/01/12 10:09:19;;;;;;;8.75;3.55;;;8.00;62.80;;;;;;6052859;23;115727;-86
2023/01/12 10:12:12;;;;;;;8.02;3.45;;;8.00;62.60;;;;;;6028705;23;114592;-84
2023/01/12 10:14:49;;;;;;;6.47;2.95;;;8.10;62.10;;;;;;6070749;23;114566;-83
2023/01/12 10:17:30;;;;;;;6.00;2.10;;;8.10;61.80;;;;;;6074227;23;115251;-85
2023/01/12 10:20:33;;;;;;;6.93;2.30;;;8.20;61.60;;;;;;6054342;23;114435;-84
2023/01/12 10:23:08;;;;;;;5.10;2.10;;;8.20;61.20;;;;;;6052171;23;114396;-84
2023/01/12 10:25:40;;;;;;;6.32;2.70;;;8.20;60.80;;;;;;6053239;23;115056;-83
2023/01/12 10:28:30;;;;;;;7.70;2.75;;;8.20;60.70;;;;;;6050929;23;114892;-84
2023/01/12 10:30:59;;;;;;;7.00;2.20;;;8.30;60.00;;;;;;6075834;23;114315;-85
2023/01/12 10:33:31;;;;;;;5.20;2.17;;;8.30;60.00;;;;;;6004983;23;114302;-85
2023/01/12 10:36:10;;;;;;;5.65;2.10;;;8.30;59.70;;;;;;6027058;23;115036;-84
2023/01/12 10:39:01;;;;;;;6.85;2.13;;;8.40;59.30;;;;;;6075876;23;116144;-84
2023/01/12 10:41:36;;;;;;;6.00;2.42;;;8.30;59.50;;;;;;6052745;23;114654;-84
2023/01/12 10:44:14;;;;;;;6.80;2.50;;;8.30;58.90;;;;;;6053157;23;114743;-84
2023/01/12 10:46:42;;;;;;;8.40;3.05;;;8.30;58.90;;;;;;6027046;23;116132;-85
2023/01/12 10:49:15;;;;;;;9.00;2.65;;;8.20;59.40;;;;;;6052941;23;115573;-84
2023/01/12 10:52:19;;;;;;;6.75;1.90;;;8.30;59.10;;;;;;6052637;23;114391;-85
2023/01/12 10:54:47;;;;;;;7.55;2.47;;;8.40;59.00;;;;;;6030372;23;114600;-84
2023/01/12 10:57:21;;;;;;;7.05;2.33;;;8.30;59.10;;;;;;6075986;23;115504;-84
2023/01/12 10:59:57;;;;;;;8.00;2.22;;;8.30;58.90;;;;;;6028389;23;115106;-83
2023/01/12 11:02:27;;;;;;;6.90;2.00;;;8.30;58.70;;;;;;6052555;23;114229;-85
2023/01/12 11:05:13;;;;;;;6.80;3.03;;;8.30;58.40;;;;;;6051752;23;114682;-84
2023/01/12 11:07:53;;;;;;;6.22;2.00;;;8.40;58.30;;;;;;6027726;23;120239;-84
2023/01/12 11:10:34;;;;;;;6.28;2.50;;;8.40;58.50;;;;;;6051336;23;114619;-85
2023/01/12 11:13:39;;;;;;;6.65;1.98;;;8.40;58.10;;;;;;6000736;23;115412;-85
2023/01/12 11:16:23;;;;;;;9.98;2.97;;;8.40;57.60;;;;;;5953841;23;114535;-85
2023/01/12 11:19:43;;;;;;;6.55;2.35;;;8.30;57.70;;;;;;6020646;23;115186;-84
2023/01/12 11:22:37;;;;;;;10.05;2.25;;;8.40;57.80;;;;;;6015960;23;114910;-84
2023/01/12 11:25:10;;;;;;;8.55;2.38;;;8.30;57.60;;;;;;5993643;23;115366;-84
2023/01/12 11:28:02;;;;;;;8.77;2.90;;;8.20;57.60;;;;;;5996655;23;114674;-83
2023/01/12 11:31:10;;;;;;;9.23;2.05;;;8.30;58.00;;;;;;5996240;23;115215;-84
2023/01/12 11:33:58;;;;;;;6.43;1.80;;;8.30;57.80;;;;;;6017924;23;115526;-84
2023/01/12 11:36:51;;;;;;;5.97;2.20;;;8.30;57.60;;;;;;6023994;23;114398;-85
2023/01/12 11:39:26;;;;;;;6.10;2.10;;;8.30;57.60;;;;;;6004486;23;114421;-83
2023/01/12 11:44:54;;;;;;;6.30;2.25;;;8.30;57.60;;;;;;6016198;23;115929;-85
2023/01/12 11:47:24;;;;;;;6.82;2.63;;;8.30;57.40;;;;;;6055232;23;114844;-85
2023/01/12 11:50:05;;;;;;;7.45;2.45;;;8.30;57.40;;;;;;6050976;23;114724;-84
2023/01/12 11:52:33;;;;;;;7.35;2.25;;;8.40;57.40;;;;;;6049618;23;115307;-85
2023/01/12 11:55:01;;;;;;;7.43;2.72;;;8.30;57.70;;;;;;6073796;23;114319;-84
2023/01/12 11:57:53;;;;;;;6.93;2.35;;;8.40;57.70;;;;;;6051269;23;114479;-84
2023/01/12 12:00:40;;;;;;;8.15;2.35;;;8.40;57.30;;;;;;6052037;23;114506;-86
2023/01/12 12:03:37;;;;;;;7.57;2.15;;;8.50;57.50;;;;;;6049029;23;116834;-85
2023/01/12 12:06:48;;;;;;;7.72;2.58;;;8.50;57.10;;;;;;6051026;23;114715;-85
2023/01/12 12:10:14;;;;;;;6.80;2.40;;;8.50;56.80;;;;;;6026446;23;114688;-85
2023/01/12 12:13:13;;;;;;;6.22;2.38;;;8.50;56.60;;;;;;6014241;23;114594;-85
2023/01/12 12:16:20;;;;;;;5.75;2.20;;;8.50;56.30;;;;;;6055266;23;115405;-85
2023/01/12 12:19:05;;;;;;;5.95;2.05;;;8.40;56.40;;;;;;6046546;23;114561;-84
2023/01/12 12:21:49;;;;;;;8.68;2.15;;;8.50;56.20;;;;;;6053348;23;114651;-83
2023/01/12 12:24:58;;;;;;;8.48;3.22;;;8.40;56.60;;;;;;6053248;23;114338;-85
2023/01/12 12:28:10;;;;;;;9.30;4.75;;;8.50;56.40;;;;;;6047236;23;115877;-86
2023/01/12 12:30:45;;;;;;;9.70;5.10;;;8.50;57.30;;;;;;6051748;23;114754;-84
2023/01/12 12:33:39;;;;;;;8.93;3.25;;;8.50;57.60;;;;;;6074618;23;114687;-86
2023/01/12 12:36:16;;;;;;;12.82;3.05;;;8.40;56.80;;;;;;6051396;23;114468;-84
2023/01/12 12:39:07;;;;;;;6.88;2.70;;;8.40;56.70;;;;;;6074274;23;115475;-84
2023/01/12 12:45:21;;;;;;;10.90;3.85;;;8.40;57.20;;;;;;6075787;23;114671;-84
2023/01/12 12:48:13;;;;;;;8.18;3.22;;;8.30;57.10;;;;;;6051129;23;114677;-84
2023/01/12 12:51:05;;;;;;;9.20;3.75;;;8.40;57.10;;;;;;6026704;23;117899;-84
2023/01/12 12:54:01;;;;;;;10.32;4.75;;;8.50;57.00;;;;;;6073670;23;114754;-85
2023/01/12 12:56:30;;;;;;;12.00;5.90;;;8.50;57.70;;;;;;6003207;23;114267;-85
2023/01/12 12:59:00;;;;;;;13.25;6.20;;;8.30;58.00;;;;;;6028028;23;115544;-84
2023/01/12 13:01:27;;;;;;;9.75;5.40;;;8.20;58.50;;;;;;6051011;23;115053;-84
2023/01/12 13:03:59;;;;;;;12.50;6.40;;;8.20;58.50;;;;;;6051451;23;114709;-84
2023/01/12 13:06:36;;;;;;;10.90;6.05;;;8.10;58.80;;;;;;6052817;23;114458;-85
2023/01/12 13:09:15;;;;;;;9.55;5.40;;;8.00;59.20;;;;;;6051279;23;115752;-84
2023/01/12 13:11:57;;;;;;;11.18;5.82;;;7.90;59.20;;;;;;6049867;23;117899;-85
2023/01/12 13:14:33;;;;;;;11.65;6.00;;;7.80;59.60;;;;;;6074200;23;116848;-85
2023/01/12 13:17:17;;;;;;;13.75;6.45;;;7.70;59.90;;;;;;6051492;23;114898;-84
2023/01/12 13:19:46;;;;;;;9.23;5.45;;;7.70;60.00;;;;;;6072692;23;114512;-84
2023/01/12 13:22:41;;;;;;;13.25;6.65;;;7.60;60.20;;;;;;6053580;23;115049;-84
2023/01/12 13:25:23;;;;;;;13.38;6.85;;;7.50;60.60;;;;;;6055656;23;115154;-84
2023/01/12 13:27:55;;;;;;;10.43;6.80;;;7.30;60.90;;;;;;6076462;23;114715;-84
2023/01/12 13:30:29;;;;;;;11.23;6.53;;;7.20;61.30;;;;;;6075878;23;114595;-84
2023/01/12 13:33:09;;;;;;;14.05;7.55;;;7.00;61.80;;;;;;6074037;23;115117;-84
2023/01/12 13:35:39;;;;;;;14.40;7.20;;;6.90;62.10;;;;;;6026487;23;115802;-85
2023/01/12 13:38:42;;;;;;;14.05;7.75;;;6.80;62.40;;;;;;6052948;23;114543;-85
2023/01/12 13:41:12;;;;;;;12.85;7.50;;;6.80;62.70;;;;;;6052541;23;114659;-85
2023/01/12 13:43:53;;;;;;;13.23;7.65;;;6.70;63.00;;;;;;6051711;23;115095;-84
2023/01/12 13:46:26;;;;;;;18.05;7.75;;;6.70;63.30;;;;;;6050946;23;114767;-85
2023/01/12 13:49:02;;;;;;;12.23;6.40;;;6.60;63.30;;;;;;6028604;23;115683;-86
2023/01/12 13:51:37;;;;;;;15.07;8.30;;;6.60;63.50;;;;;;6051646;23;114824;-84